Time;durP1;ratioP1;P1;durP2;ratioP2;P2;SDS_P1;SDS_P2;PMS_P1;PMS_P2;Temp;Humidity;BMP_temperature;BMP_pressure;BME280_temperature;BME280_humidity;BME280_pressure;Samples;Min_cycle;Max_cycle;Signal;HPM_P1;HPM_P2
2023/09/23 00:00:40;;;;;;;2.10;1.90;;;;;;;;;;4949188;28;20242;-89
2023/09/23 00:03:06;;;;;;;2.53;2.30;;;;;;;;;;4921506;28;20219;-88
2023/09/23 00:05:35;;;;;;;2.30;2.10;;;;;;;;;;4943128;28;20262;-88
2023/09/23 00:08:01;;;;;;;2.60;2.33;;;;;;;;;;4929540;29;20276;-87
2023/09/23 00:10:27;;;;;;;2.43;1.87;;;;;;;;;;4908092;29;20231;-89
2023/09/23 00:12:55;;;;;;;3.40;1.97;;;;;;;;;;4919183;29;20234;-88
2023/09/23 00:15:21;;;;;;;2.50;2.30;;;;;;;;;;4918596;28;20215;-91
2023/09/23 00:17:48;;;;;;;3.83;2.50;;;;;;;;;;4912152;29;20290;-90
2023/09/23 00:20:16;;;;;;;2.90;2.70;;;;;;;;;;4923186;28;20257;-90
2023/09/23 00:22:45;;;;;;;2.30;2.20;;;;;;;;;;4909591;29;20227;-88
2023/09/23 00:25:10;;;;;;;2.57;2.17;;;;;;;;;;4905932;28;20301;-89
2023/09/23 00:27:36;;;;;;;3.67;2.87;;;;;;;;;;4909368;29;20294;-89
2023/09/23 00:30:05;;;;;;;3.50;2.63;;;;;;;;;;4892811;29;20247;-89
2023/09/23 00:32:32;;;;;;;3.13;2.67;;;;;;;;;;4911317;29;20242;-88
2023/09/23 00:34:59;;;;;;;2.40;2.30;;;;;;;;;;4903065;29;20223;-89
2023/09/23 00:37:25;;;;;;;2.60;2.50;;;;;;;;;;4906752;28;20223;-89
2023/09/23 00:39:50;;;;;;;4.03;3.17;;;;;;;;;;4906801;29;20227;-89
2023/09/23 00:42:19;;;;;;;2.80;2.60;;;;;;;;;;4923134;28;20219;-90
2023/09/23 00:44:45;;;;;;;3.27;3.00;;;;;;;;;;4898997;29;20270;-87
2023/09/23 00:47:14;;;;;;;2.97;2.77;;;;;;;;;;4908180;28;20235;-89
2023/09/23 00:49:41;;;;;;;3.83;3.00;;;;;;;;;;4909499;29;20603;-86
2023/09/23 00:52:07;;;;;;;2.87;2.67;;;;;;;;;;4914559;28;20232;-86
2023/09/23 00:54:36;;;;;;;3.50;3.20;;;;;;;;;;4924499;29;20226;-86
2023/09/23 00:57:03;;;;;;;3.33;3.03;;;;;;;;;;4924420;29;20235;-87
2023/09/23 00:59:32;;;;;;;5.03;3.20;;;;;;;;;;4933364;29;20215;-88
2023/09/23 01:01:58;;;;;;;3.40;3.10;;;;;;;;;;4947925;29;20234;-90
2023/09/23 01:04:24;;;;;;;3.37;3.10;;;;;;;;;;4945742;28;20222;-91
2023/09/23 01:06:50;;;;;;;7.23;3.40;;;;;;;;;;4931030;29;20246;-90
2023/09/23 01:09:20;;;;;;;5.63;3.67;;;;;;;;;;4961991;28;20242;-89
2023/09/23 01:11:47;;;;;;;3.40;3.20;;;;;;;;;;4958697;29;20238;-90
2023/09/23 01:14:12;;;;;;;3.77;3.30;;;;;;;;;;4959214;28;20293;-87
2023/09/23 01:16:38;;;;;;;5.67;3.40;;;;;;;;;;4958572;28;20228;-89
2023/09/23 01:19:05;;;;;;;3.70;3.40;;;;;;;;;;4937214;29;20232;-87
2023/09/23 01:21:31;;;;;;;3.60;3.30;;;;;;;;;;4974185;28;20295;-87
2023/09/23 01:23:57;;;;;;;3.37;3.07;;;;;;;;;;4961077;28;20290;-92
2023/09/23 01:26:23;;;;;;;5.17;3.60;;;;;;;;;;4928340;28;20243;-89
2023/09/23 01:28:49;;;;;;;3.60;3.30;;;;;;;;;;4935026;28;20283;-87
2023/09/23 01:31:15;;;;;;;4.20;3.40;;;;;;;;;;4956848;28;20230;-87
2023/09/23 01:33:45;;;;;;;3.40;3.17;;;;;;;;;;4950119;28;20227;-87
2023/09/23 01:36:11;;;;;;;3.73;3.43;;;;;;;;;;4940193;28;20227;-86
2023/09/23 01:38:50;;;;;;;3.73;3.20;;;;;;;;;;4910919;29;20231;-88
2023/09/23 01:41:16;;;;;;;3.33;3.03;;;;;;;;;;4940377;28;20231;-88
2023/09/23 01:43:41;;;;;;;3.93;3.47;;;;;;;;;;4940782;29;20305;-88
2023/09/23 01:46:10;;;;;;;3.60;3.30;;;;;;;;;;4923198;28;21272;-87
2023/09/23 01:48:36;;;;;;;3.87;3.47;;;;;;;;;;4908246;29;20240;-87
2023/09/23 01:51:04;;;;;;;4.67;3.70;;;;;;;;;;4939674;29;20250;-88
2023/09/23 01:53:32;;;;;;;3.87;3.50;;;;;;;;;;4897626;29;20656;-89
2023/09/23 01:55:57;;;;;;;3.50;3.20;;;;;;;;;;4923117;29;20220;-88
2023/09/23 01:58:23;;;;;;;3.40;3.10;;;;;;;;;;4930233;28;20665;-87
2023/09/23 02:00:50;;;;;;;3.93;3.27;;;;;;;;;;4939883;28;20223;-88
2023/09/23 02:03:16;;;;;;;3.23;2.93;;;;;;;;;;4956647;28;20215;-86
2023/09/23 02:05:42;;;;;;;2.93;2.63;;;;;;;;;;4907398;29;20569;-87
2023/09/23 02:08:08;;;;;;;4.60;3.00;;;;;;;;;;4949033;28;20227;-87
2023/09/23 02:10:33;;;;;;;3.33;3.03;;;;;;;;;;4905589;29;20220;-87
2023/09/23 02:13:05;;;;;;;3.20;2.90;;;;;;;;;;4925756;29;20227;-87
2023/09/23 02:15:30;;;;;;;3.47;3.17;;;;;;;;;;4929377;28;20222;-85
2023/09/23 02:17:56;;;;;;;3.30;3.00;;;;;;;;;;4937761;29;20223;-87
2023/09/23 02:20:22;;;;;;;3.57;3.27;;;;;;;;;;4935091;28;20299;-87
2023/09/23 02:22:50;;;;;;;3.87;3.23;;;;;;;;;;4943521;28;20222;-86
2023/09/23 02:25:16;;;;;;;3.97;3.17;;;;;;;;;;4928256;28;20219;-86
2023/09/23 02:27:43;;;;;;;3.50;3.10;;;;;;;;;;4903691;29;20697;-87
2023/09/23 02:30:09;;;;;;;4.67;3.20;;;;;;;;;;4946733;28;20238;-86
2023/09/23 02:32:42;;;;;;;3.17;2.87;;;;;;;;;;4913242;28;20222;-85
2023/09/23 02:35:11;;;;;;;3.00;2.70;;;;;;;;;;4906968;28;20695;-86
2023/09/23 02:37:40;;;;;;;4.10;3.57;;;;;;;;;;4951253;28;20222;-85
2023/09/23 02:40:14;;;;;;;3.70;3.40;;;;;;;;;;4928838;28;20230;-86
2023/09/23 02:42:42;;;;;;;3.20;3.00;;;;;;;;;;4942381;28;20237;-86
2023/09/23 02:45:09;;;;;;;3.10;2.80;;;;;;;;;;4937878;28;20274;-86
2023/09/23 02:47:41;;;;;;;4.07;3.30;;;;;;;;;;4914056;29;20240;-86
2023/09/23 02:50:10;;;;;;;8.57;3.20;;;;;;;;;;4950821;28;20226;-87
2023/09/23 02:52:37;;;;;;;3.33;3.03;;;;;;;;;;4938997;29;20751;-86
2023/09/23 02:55:07;;;;;;;3.57;3.27;;;;;;;;;;4941368;28;20613;-87
2023/09/23 02:57:36;;;;;;;3.83;3.33;;;;;;;;;;4933869;28;20246;-86
2023/09/23 03:00:16;;;;;;;4.87;3.80;;;;;;;;;;4920531;28;20230;-86
2023/09/23 03:02:45;;;;;;;4.20;3.83;;;;;;;;;;4931338;29;20672;-85
2023/09/23 03:05:17;;;;;;;4.80;4.40;;;;;;;;;;4954203;28;20216;-87
2023/09/23 03:07:50;;;;;;;6.27;5.67;;;;;;;;;;4961849;28;20230;-88
2023/09/23 03:10:19;;;;;;;5.90;5.40;;;;;;;;;;4938143;28;20224;-88
2023/09/23 03:13:01;;;;;;;5.50;5.00;;;;;;;;;;4918544;29;20547;-85
2023/09/23 03:15:33;;;;;;;6.73;6.13;;;;;;;;;;4941394;28;20265;-85
2023/09/23 03:18:05;;;;;;;6.83;6.13;;;;;;;;;;4927965;28;20224;-86
2023/09/23 03:20:34;;;;;;;7.67;6.97;;;;;;;;;;4941811;28;20234;-85
2023/09/23 03:23:10;;;;;;;10.77;7.97;;;;;;;;;;4939379;29;20227;-85
2023/09/23 03:25:44;;;;;;;8.33;7.53;;;;;;;;;;4953339;28;20206;-85
2023/09/23 03:28:10;;;;;;;9.27;8.43;;;;;;;;;;4960610;28;20227;-87
2023/09/23 03:30:38;;;;;;;9.53;8.67;;;;;;;;;;4947415;28;20582;-86
2023/09/23 03:33:03;;;;;;;9.97;8.90;;;;;;;;;;4955658;28;20275;-85
2023/09/23 03:35:32;;;;;;;9.33;8.53;;;;;;;;;;4948151;28;20226;-86
2023/09/23 03:38:00;;;;;;;12.50;8.80;;;;;;;;;;4931773;28;20283;-87
2023/09/23 03:40:27;;;;;;;10.20;9.20;;;;;;;;;;4955910;28;20653;-87
2023/09/23 03:42:53;;;;;;;11.03;9.77;;;;;;;;;;4943787;28;20226;-86
2023/09/23 03:45:19;;;;;;;10.73;9.73;;;;;;;;;;4931229;28;20223;-87
2023/09/23 03:47:48;;;;;;;11.00;9.33;;;;;;;;;;4940050;29;20229;-85
2023/09/23 03:50:14;;;;;;;10.13;9.23;;;;;;;;;;4927944;28;20237;-86
2023/09/23 03:52:40;;;;;;;11.33;10.23;;;;;;;;;;4956208;28;20227;-87
2023/09/23 03:55:08;;;;;;;11.53;10.53;;;;;;;;;;4942865;28;20229;-86
2023/09/23 03:57:34;;;;;;;12.23;11.13;;;;;;;;;;4943198;29;20295;-84
2023/09/23 04:04:01;;;;;;;11.70;10.50;;;;;;;;;;4960381;28;20374;-86
2023/09/23 04:06:30;;;;;;;11.20;10.27;;;;;;;;;;4936145;28;20307;-87
2023/09/23 04:08:58;;;;;;;15.53;11.47;;;;;;;;;;4904935;29;20224;-87
2023/09/23 04:11:29;;;;;;;14.37;11.33;;;;;;;;;;4933866;28;20683;-86
2023/09/23 04:13:55;;;;;;;12.83;11.60;;;;;;;;;;4931685;29;20613;-85
2023/09/23 04:16:21;;;;;;;13.23;11.87;;;;;;;;;;4941475;28;20212;-86
2023/09/23 04:18:47;;;;;;;12.20;11.10;;;;;;;;;;4927375;28;20225;-85
2023/09/23 04:21:13;;;;;;;12.53;11.40;;;;;;;;;;4940693;28;20214;-88
2023/09/23 04:23:39;;;;;;;13.57;12.30;;;;;;;;;;4934551;28;20222;-86
2023/09/23 04:26:07;;;;;;;14.50;11.83;;;;;;;;;;4926283;28;20235;-86
2023/09/23 04:28:33;;;;;;;13.23;12.13;;;;;;;;;;4940742;28;20211;-85
2023/09/23 04:30:58;;;;;;;14.83;13.37;;;;;;;;;;4932353;28;20229;-85
2023/09/23 04:33:27;;;;;;;14.13;12.73;;;;;;;;;;4939130;28;20211;-85
2023/09/23 04:35:56;;;;;;;14.70;13.40;;;;;;;;;;4941042;29;20767;-87
2023/09/23 04:38:23;;;;;;;14.50;13.20;;;;;;;;;;4910022;28;20227;-87
2023/09/23 04:40:49;;;;;;;14.97;13.67;;;;;;;;;;4914590;29;20281;-85
2023/09/23 04:43:16;;;;;;;14.53;13.10;;;;;;;;;;4925054;28;20223;-86
2023/09/23 04:45:44;;;;;;;15.03;13.63;;;;;;;;;;4947127;29;20217;-86
2023/09/23 04:48:10;;;;;;;15.13;13.70;;;;;;;;;;4934532;28;20304;-87
2023/09/23 04:50:39;;;;;;;15.17;13.50;;;;;;;;;;4937094;29;20243;-85
2023/09/23 04:53:08;;;;;;;15.67;14.27;;;;;;;;;;4933422;28;20267;-88
2023/09/23 04:55:35;;;;;;;16.83;15.20;;;;;;;;;;4949660;28;20225;-87
2023/09/23 04:58:01;;;;;;;17.90;16.40;;;;;;;;;;4948707;28;20229;-86
2023/09/23 05:00:36;;;;;;;17.53;15.93;;;;;;;;;;4966359;28;20226;-84
2023/09/23 05:03:08;;;;;;;16.63;15.13;;;;;;;;;;4923091;28;20629;-87
2023/09/23 05:05:34;;;;;;;18.83;17.03;;;;;;;;;;4957283;28;20242;-86
2023/09/23 05:08:04;;;;;;;18.23;16.67;;;;;;;;;;4928319;29;20218;-85
2023/09/23 05:10:35;;;;;;;19.63;17.90;;;;;;;;;;4943285;29;20243;-87
2023/09/23 05:13:01;;;;;;;19.37;17.67;;;;;;;;;;4943459;28;20223;-86
2023/09/23 05:15:26;;;;;;;19.03;17.43;;;;;;;;;;4941992;28;20226;-85
2023/09/23 05:17:55;;;;;;;19.00;17.33;;;;;;;;;;4913584;29;20222;-86
2023/09/23 05:20:25;;;;;;;18.53;16.83;;;;;;;;;;4943853;28;20225;-87
2023/09/23 05:22:53;;;;;;;19.07;17.47;;;;;;;;;;4945553;28;20233;-84
2023/09/23 05:25:27;;;;;;;19.67;17.90;;;;;;;;;;4949913;28;20223;-86
2023/09/23 05:27:57;;;;;;;17.50;16.10;;;;;;;;;;4918247;29;20223;-86
2023/09/23 05:30:23;;;;;;;17.90;16.40;;;;;;;;;;4919224;29;20230;-87
2023/09/23 05:32:49;;;;;;;18.03;16.43;;;;;;;;;;4935765;29;20269;-86
2023/09/23 05:35:14;;;;;;;17.30;16.00;;;;;;;;;;4937428;28;20223;-86
2023/09/23 05:37:43;;;;;;;16.93;15.43;;;;;;;;;;4940154;29;20302;-88
2023/09/23 05:40:27;;;;;;;17.40;15.90;;;;;;;;;;4933254;28;20227;-86
2023/09/23 05:42:56;;;;;;;16.53;15.10;;;;;;;;;;4948986;28;20216;-87
2023/09/23 05:45:24;;;;;;;18.10;16.33;;;;;;;;;;4933699;28;20230;-87
2023/09/23 05:47:56;;;;;;;17.00;15.40;;;;;;;;;;4920286;28;20227;-87
2023/09/23 05:50:22;;;;;;;17.40;15.80;;;;;;;;;;4935861;28;20238;-87
2023/09/23 05:52:47;;;;;;;16.50;15.30;;;;;;;;;;4950661;28;20206;-86
2023/09/23 05:55:14;;;;;;;17.03;15.67;;;;;;;;;;4940550;28;20211;-87
2023/09/23 05:57:40;;;;;;;17.17;15.67;;;;;;;;;;4937998;28;20246;-86
2023/09/23 06:00:15;;;;;;;15.97;14.70;;;;;;;;;;4926147;28;20231;-86
2023/09/23 06:02:45;;;;;;;16.23;14.90;;;;;;;;;;4955903;28;20230;-88
2023/09/23 06:05:14;;;;;;;16.40;15.10;;;;;;;;;;4925443;28;20245;-87
2023/09/23 06:07:42;;;;;;;16.07;14.47;;;;;;;;;;4928891;29;20254;-86
2023/09/23 06:10:08;;;;;;;17.30;15.70;;;;;;;;;;4932593;28;20241;-86
2023/09/23 06:12:34;;;;;;;16.60;15.10;;;;;;;;;;4948947;28;20289;-86
2023/09/23 06:15:00;;;;;;;16.30;14.80;;;;;;;;;;4935199;28;20704;-88
2023/09/23 06:17:28;;;;;;;16.97;15.47;;;;;;;;;;4926262;28;20222;-87
2023/09/23 06:19:55;;;;;;;16.10;14.80;;;;;;;;;;4951848;29;20211;-88
2023/09/23 06:22:21;;;;;;;15.93;14.53;;;;;;;;;;4963474;28;20282;-86
2023/09/23 06:24:50;;;;;;;15.43;13.97;;;;;;;;;;4954981;28;20282;-88
2023/09/23 06:27:16;;;;;;;11.43;10.57;;;;;;;;;;4957133;28;20230;-84
2023/09/23 06:29:47;;;;;;;9.80;9.10;;;;;;;;;;4939752;29;20243;-88
2023/09/23 06:32:15;;;;;;;9.30;8.50;;;;;;;;;;4922274;28;20218;-87
2023/09/23 06:34:40;;;;;;;8.53;7.93;;;;;;;;;;4971656;28;20238;-86
2023/09/23 06:37:06;;;;;;;6.20;5.77;;;;;;;;;;4961673;28;20222;-87
2023/09/23 06:39:31;;;;;;;4.90;4.50;;;;;;;;;;4957560;28;20230;-87
2023/09/23 06:41:58;;;;;;;3.27;3.07;;;;;;;;;;4943168;28;20223;-86
2023/09/23 06:44:28;;;;;;;3.50;3.20;;;;;;;;;;4924893;28;20222;-87
2023/09/23 06:46:58;;;;;;;2.40;2.20;;;;;;;;;;4924348;28;20247;-86
2023/09/23 06:49:23;;;;;;;2.60;2.40;;;;;;;;;;4944989;28;20223;-87
2023/09/23 06:51:51;;;;;;;2.60;2.40;;;;;;;;;;4945396;28;20258;-87
2023/09/23 06:54:19;;;;;;;4.77;3.10;;;;;;;;;;4941629;28;20597;-87
2023/09/23 06:56:45;;;;;;;3.80;3.60;;;;;;;;;;4942461;28;20295;-85
2023/09/23 06:59:14;;;;;;;4.20;3.90;;;;;;;;;;4923957;28;20253;-87
2023/09/23 07:01:42;;;;;;;4.50;4.20;;;;;;;;;;4956499;28;20234;-85
2023/09/23 07:04:08;;;;;;;5.53;5.03;;;;;;;;;;4924874;28;20254;-88
2023/09/23 07:06:34;;;;;;;4.60;4.30;;;;;;;;;;4938883;29;20297;-85
2023/09/23 07:09:07;;;;;;;5.37;4.87;;;;;;;;;;4942244;28;20294;-86
2023/09/23 07:11:33;;;;;;;5.03;4.63;;;;;;;;;;4939788;28;20657;-88
2023/09/23 07:14:00;;;;;;;5.23;4.73;;;;;;;;;;4926102;29;20301;-87
2023/09/23 07:16:30;;;;;;;5.10;4.70;;;;;;;;;;4943638;28;20219;-86
2023/09/23 07:18:58;;;;;;;5.47;5.07;;;;;;;;;;4942198;28;20227;-87
2023/09/23 07:21:24;;;;;;;5.33;4.93;;;;;;;;;;4944551;28;20222;-86
2023/09/23 07:23:49;;;;;;;5.17;4.77;;;;;;;;;;4954180;28;20230;-87
2023/09/23 07:26:21;;;;;;;5.23;4.83;;;;;;;;;;4918043;28;20298;-87
2023/09/23 07:28:50;;;;;;;4.60;4.30;;;;;;;;;;4935514;28;20698;-85
2023/09/23 07:31:17;;;;;;;6.80;4.73;;;;;;;;;;4925977;28;20215;-88
2023/09/23 07:33:43;;;;;;;4.63;4.33;;;;;;;;;;4951443;28;20263;-87
2023/09/23 07:36:13;;;;;;;5.03;4.63;;;;;;;;;;4934373;28;20212;-87
2023/09/23 07:38:39;;;;;;;3.77;3.53;;;;;;;;;;4919031;28;20243;-88
2023/09/23 07:41:05;;;;;;;4.80;4.50;;;;;;;;;;4917811;28;20256;-87
2023/09/23 07:43:31;;;;;;;4.30;4.00;;;;;;;;;;4954387;28;20230;-85
2023/09/23 07:45:57;;;;;;;6.07;5.57;;;;;;;;;;4921263;29;20280;-87
2023/09/23 07:48:23;;;;;;;5.60;5.10;;;;;;;;;;4942749;28;20767;-89
2023/09/23 07:50:48;;;;;;;5.63;5.23;;;;;;;;;;4948620;28;20229;-87
2023/09/23 07:53:17;;;;;;;4.93;4.57;;;;;;;;;;4922297;28;20223;-88
2023/09/23 07:55:43;;;;;;;5.97;5.47;;;;;;;;;;4928559;28;20242;-88
2023/09/23 07:58:09;;;;;;;5.03;4.63;;;;;;;;;;4937343;28;20790;-86
2023/09/23 08:00:35;;;;;;;5.47;4.97;;;;;;;;;;4937732;28;20223;-86
2023/09/23 08:03:01;;;;;;;5.33;4.90;;;;;;;;;;4961173;28;20305;-85
2023/09/23 08:05:26;;;;;;;4.50;4.17;;;;;;;;;;4954074;28;20218;-86
2023/09/23 08:07:55;;;;;;;4.53;4.17;;;;;;;;;;4934354;29;20267;-86
2023/09/23 08:10:23;;;;;;;4.40;4.00;;;;;;;;;;4927651;28;20293;-86
2023/09/23 08:12:51;;;;;;;4.43;4.03;;;;;;;;;;4945306;28;20231;-86
2023/09/23 08:15:19;;;;;;;5.03;4.63;;;;;;;;;;4941280;28;20210;-87
2023/09/23 08:17:44;;;;;;;5.13;4.57;;;;;;;;;;4918555;29;20222;-86
2023/09/23 08:20:23;;;;;;;5.10;4.60;;;;;;;;;;4941817;28;20215;-86
2023/09/23 08:22:49;;;;;;;3.80;3.50;;;;;;;;;;4938649;28;20231;-87
2023/09/23 08:25:15;;;;;;;4.38;3.97;;;;;;;;;;4941366;28;20222;-87
2023/09/23 08:27:41;;;;;;;4.60;4.30;;;;;;;;;;4959061;28;20242;-86
2023/09/23 08:30:10;;;;;;;4.78;4.43;;;;;;;;;;4925829;28;20222;-87
2023/09/23 08:32:39;;;;;;;3.83;3.53;;;;;;;;;;4958756;28;20234;-85
2023/09/23 08:35:06;;;;;;;4.05;3.75;;;;;;;;;;4937171;28;20230;-86
2023/09/23 08:37:34;;;;;;;5.45;4.03;;;;;;;;;;4976039;28;20226;-89
2023/09/23 08:40:05;;;;;;;4.07;3.78;;;;;;;;;;4943883;29;20227;-87
2023/09/23 08:42:31;;;;;;;4.40;4.00;;;;;;;;;;4911541;29;20226;-87
2023/09/23 08:44:57;;;;;;;4.22;3.83;;;;;;;;;;4941762;28;20230;-87
2023/09/23 08:47:22;;;;;;;3.88;3.58;;;;;;;;;;4939559;28;20230;-86
2023/09/23 08:49:49;;;;;;;5.63;4.13;;;;;;;;;;4922910;29;20779;-87
2023/09/23 08:52:16;;;;;;;4.20;3.90;;;;;;;;;;4930024;28;20223;-85
2023/09/23 08:54:42;;;;;;;5.68;4.13;;;;;;;;;;4916499;29;20223;-86
2023/09/23 08:57:08;;;;;;;4.80;4.50;;;;;;;;;;4925039;28;20285;-86
2023/09/23 08:59:34;;;;;;;5.82;4.68;;;;;;;;;;4940833;29;20319;-88
2023/09/23 09:02:03;;;;;;;4.65;4.25;;;;;;;;;;4943152;28;20213;-88
2023/09/23 09:04:31;;;;;;;5.00;4.60;;;;;;;;;;4957682;28;20766;-86
2023/09/23 09:06:59;;;;;;;5.28;4.88;;;;;;;;;;4957587;28;20239;-84
2023/09/23 09:09:25;;;;;;;5.07;4.57;;;;;;;;;;4922103;28;20243;-87
2023/09/23 09:11:53;;;;;;;4.72;4.32;;;;;;;;;;4943776;28;20226;-88
2023/09/23 09:14:22;;;;;;;4.90;4.50;;;;;;;;;;4922949;28;20216;-88
2023/09/23 09:16:51;;;;;;;4.30;4.00;;;;;;;;;;4943830;28;20234;-86
2023/09/23 09:19:19;;;;;;;5.20;4.10;;;;;;;;;;4925736;28;20231;-87
2023/09/23 09:21:49;;;;;;;4.15;3.85;;;;;;;;;;4958221;28;20555;-86
2023/09/23 09:24:14;;;;;;;4.25;3.95;;;;;;;;;;4938773;28;20597;-86
2023/09/23 09:26:40;;;;;;;3.70;3.40;;;;;;;;;;4947089;28;20247;-87
2023/09/23 09:29:06;;;;;;;4.70;3.45;;;;;;;;;;4952922;28;20226;-87
2023/09/23 09:31:33;;;;;;;4.30;3.90;;;;;;;;;;4929277;29;20309;-88
2023/09/23 09:34:05;;;;;;;4.70;4.25;;;;;;;;;;4961334;28;20230;-86
2023/09/23 09:36:34;;;;;;;4.47;4.07;;;;;;;;;;4929691;29;20222;-87
2023/09/23 09:38:59;;;;;;;4.05;3.70;;;;;;;;;;4966171;28;20229;-84
2023/09/23 09:41:35;;;;;;;4.60;4.20;;;;;;;;;;4944929;28;20233;-84
2023/09/23 09:44:02;;;;;;;4.40;4.00;;;;;;;;;;4950063;28;20648;-84
2023/09/23 09:46:32;;;;;;;5.85;4.07;;;;;;;;;;4964256;28;20660;-84
2023/09/23 09:48:59;;;;;;;6.22;4.32;;;;;;;;;;4967133;28;20226;-84
2023/09/23 09:51:25;;;;;;;4.18;3.88;;;;;;;;;;4958941;28;20246;-87
2023/09/23 09:53:50;;;;;;;4.93;4.30;;;;;;;;;;4965428;28;20279;-88
2023/09/23 09:56:21;;;;;;;4.50;4.10;;;;;;;;;;4936779;28;20236;-84
2023/09/23 09:58:53;;;;;;;4.20;3.90;;;;;;;;;;4951834;28;20278;-87
2023/09/23 10:01:19;;;;;;;4.75;4.18;;;;;;;;;;4947014;28;20234;-85
2023/09/23 10:03:52;;;;;;;6.55;4.45;;;;;;;;;;4942879;28;20246;-85
2023/09/23 10:06:22;;;;;;;4.78;4.30;;;;;;;;;;4956584;28;20222;-87
2023/09/23 10:08:51;;;;;;;4.45;4.05;;;;;;;;;;4967901;28;20226;-87
2023/09/23 10:11:17;;;;;;;4.60;4.20;;;;;;;;;;4938669;28;20214;-87
2023/09/23 10:13:42;;;;;;;5.15;4.68;;;;;;;;;;4959357;28;20314;-85
2023/09/23 10:16:12;;;;;;;4.88;4.32;;;;;;;;;;4956716;28;20219;-86
2023/09/23 10:18:39;;;;;;;4.78;4.38;;;;;;;;;;4954324;29;20711;-85
2023/09/23 10:21:07;;;;;;;3.90;3.60;;;;;;;;;;4939840;28;20802;-86
2023/09/23 10:23:35;;;;;;;7.55;4.57;;;;;;;;;;4928589;28;20578;-88
2023/09/23 10:26:14;;;;;;;4.40;4.07;;;;;;;;;;4946719;28;20275;-86
2023/09/23 10:28:40;;;;;;;5.07;4.65;;;;;;;;;;4940675;28;20711;-86
2023/09/23 10:31:06;;;;;;;4.35;3.95;;;;;;;;;;4938212;28;20310;-85
2023/09/23 10:33:36;;;;;;;4.53;4.13;;;;;;;;;;4924011;29;20227;-87
2023/09/23 10:36:03;;;;;;;4.70;3.92;;;;;;;;;;4906768;29;20692;-85
2023/09/23 10:38:34;;;;;;;9.63;4.97;;;;;;;;;;4925189;28;20282;-86
2023/09/23 10:41:00;;;;;;;7.47;4.60;;;;;;;;;;4940879;28;20223;-86
2023/09/23 10:43:26;;;;;;;5.10;4.70;;;;;;;;;;4906872;28;20222;-89
2023/09/23 10:45:53;;;;;;;5.07;4.30;;;;;;;;;;4940530;29;20228;-87
2023/09/23 10:48:18;;;;;;;5.38;4.80;;;;;;;;;;4926287;28;20215;-86
2023/09/23 10:50:44;;;;;;;8.25;5.38;;;;;;;;;;4939868;28;20237;-88
2023/09/23 10:53:14;;;;;;;6.72;5.28;;;;;;;;;;4938927;28;20215;-87
2023/09/23 10:55:39;;;;;;;5.70;4.78;;;;;;;;;;4946788;29;20222;-86
2023/09/23 10:58:11;;;;;;;5.75;4.88;;;;;;;;;;4947468;28;20229;-86
2023/09/23 11:00:41;;;;;;;6.55;4.97;;;;;;;;;;4954921;28;20342;-86
2023/09/23 11:03:09;;;;;;;5.53;4.90;;;;;;;;;;4940302;28;20234;-85
2023/09/23 11:05:38;;;;;;;5.55;4.95;;;;;;;;;;4950327;28;20302;-85
2023/09/23 11:08:10;;;;;;;5.20;4.70;;;;;;;;;;4955686;28;20708;-87
2023/09/23 11:10:39;;;;;;;5.68;5.00;;;;;;;;;;4940724;28;20687;-88
2023/09/23 11:13:06;;;;;;;5.07;4.65;;;;;;;;;;4955682;28;20231;-85
2023/09/23 11:15:38;;;;;;;7.10;5.68;;;;;;;;;;4958339;28;20264;-85
2023/09/23 11:18:10;;;;;;;6.22;5.40;;;;;;;;;;4939688;28;20291;-86
2023/09/23 11:20:41;;;;;;;7.18;6.57;;;;;;;;;;4964060;28;20381;-86
2023/09/23 11:23:06;;;;;;;6.72;6.03;;;;;;;;;;4957479;28;20229;-87
2023/09/23 11:25:46;;;;;;;6.57;5.90;;;;;;;;;;4905812;29;20231;-87
2023/09/23 11:28:18;;;;;;;6.40;5.80;;;;;;;;;;4938833;28;20746;-86
2023/09/23 11:30:44;;;;;;;5.65;5.15;;;;;;;;;;4965531;28;20234;-85
2023/09/23 11:33:11;;;;;;;6.18;5.28;;;;;;;;;;4939444;28;20646;-86
2023/09/23 11:35:42;;;;;;;5.03;4.63;;;;;;;;;;4927063;29;20238;-87
2023/09/23 11:38:08;;;;;;;6.75;4.97;;;;;;;;;;4904140;28;20234;-85
2023/09/23 11:40:36;;;;;;;4.80;4.40;;;;;;;;;;4942032;28;20266;-86
2023/09/23 11:43:04;;;;;;;5.50;5.00;;;;;;;;;;4937126;29;20678;-85
2023/09/23 11:45:30;;;;;;;5.68;4.50;;;;;;;;;;4954652;28;20227;-86
2023/09/23 11:47:56;;;;;;;4.72;4.28;;;;;;;;;;4953024;28;20235;-87
2023/09/23 11:50:23;;;;;;;5.32;4.72;;;;;;;;;;4957539;28;20234;-87
2023/09/23 11:52:48;;;;;;;5.50;4.70;;;;;;;;;;4968219;28;20695;-85
2023/09/23 11:55:16;;;;;;;5.30;4.78;;;;;;;;;;4940166;28;20491;-84
2023/09/23 11:57:42;;;;;;;5.00;4.50;;;;;;;;;;4972375;28;20234;-86
2023/09/23 12:00:15;;;;;;;5.30;4.80;;;;;;;;;;4921993;28;20252;-89
2023/09/23 12:02:41;;;;;;;5.57;5.07;;;;;;;;;;4936853;28;20225;-87
2023/09/23 12:05:07;;;;;;;5.47;5.05;;;;;;;;;;4947232;28;20302;-86
2023/09/23 12:07:34;;;;;;;5.53;4.43;;;;;;;;;;4924695;29;20246;-84
2023/09/23 12:10:00;;;;;;;4.82;4.00;;;;;;;;;;4911808;29;20720;-86
2023/09/23 12:12:28;;;;;;;4.10;3.80;;;;;;;;;;4923796;28;20222;-89
2023/09/23 12:14:59;;;;;;;6.03;4.00;;;;;;;;;;4943000;28;20224;-85
2023/09/23 12:17:27;;;;;;;5.70;4.13;;;;;;;;;;4918364;28;20241;-86
2023/09/23 12:19:52;;;;;;;5.53;3.70;;;;;;;;;;4946740;28;20683;-85
2023/09/23 12:22:20;;;;;;;4.50;3.00;;;;;;;;;;4930665;28;20230;-86
2023/09/23 12:24:46;;;;;;;4.95;3.28;;;;;;;;;;4947077;28;20253;-86
2023/09/23 12:27:12;;;;;;;4.38;3.97;;;;;;;;;;4921288;28;20302;-86
2023/09/23 12:29:40;;;;;;;2.60;2.38;;;;;;;;;;4939353;28;20222;-88
2023/09/23 12:32:05;;;;;;;3.22;2.42;;;;;;;;;;4955756;28;20234;-88
2023/09/23 12:34:33;;;;;;;2.92;1.90;;;;;;;;;;4941642;28;20218;-87
2023/09/23 12:37:03;;;;;;;2.05;1.55;;;;;;;;;;4966799;28;20219;-88
2023/09/23 12:39:28;;;;;;;3.47;1.65;;;;;;;;;;4910118;28;20257;-90
2023/09/23 12:41:56;;;;;;;3.97;2.03;;;;;;;;;;4948137;28;20218;-86
2023/09/23 12:44:23;;;;;;;2.75;1.75;;;;;;;;;;4953891;28;20368;-85
2023/09/23 12:46:51;;;;;;;3.63;1.90;;;;;;;;;;4942716;29;20227;-85
2023/09/23 12:49:16;;;;;;;3.08;1.90;;;;;;;;;;4941094;28;20242;-86
2023/09/23 12:51:45;;;;;;;3.05;2.08;;;;;;;;;;4927504;29;20222;-84
2023/09/23 12:54:11;;;;;;;2.30;2.08;;;;;;;;;;4933230;28;20711;-87
2023/09/23 12:56:37;;;;;;;2.42;2.03;;;;;;;;;;4928090;29;20219;-88
2023/09/23 12:59:06;;;;;;;2.83;2.13;;;;;;;;;;4943090;28;20234;-87
2023/09/23 13:01:34;;;;;;;3.28;2.33;;;;;;;;;;4917949;29;20230;-88
2023/09/23 13:04:03;;;;;;;4.10;2.15;;;;;;;;;;4936921;29;20220;-87
2023/09/23 13:06:28;;;;;;;3.40;1.83;;;;;;;;;;4939443;28;20244;-85
2023/09/23 13:08:59;;;;;;;3.55;1.58;;;;;;;;;;4971684;28;20228;-85
2023/09/23 13:11:24;;;;;;;4.70;1.90;;;;;;;;;;4914251;28;20227;-87
2023/09/23 13:13:52;;;;;;;3.10;1.77;;;;;;;;;;4945977;29;20711;-86
2023/09/23 13:16:18;;;;;;;2.55;1.70;;;;;;;;;;4943930;28;20211;-87
2023/09/23 13:18:43;;;;;;;1.77;1.67;;;;;;;;;;4932219;28;20224;-87
2023/09/23 13:21:11;;;;;;;3.80;1.88;;;;;;;;;;4938774;28;20278;-86
2023/09/23 13:23:40;;;;;;;2.45;1.65;;;;;;;;;;4942116;28;20223;-86
2023/09/23 13:26:06;;;;;;;2.08;1.50;;;;;;;;;;4913566;28;20219;-87
2023/09/23 13:28:32;;;;;;;1.88;1.50;;;;;;;;;;4910338;29;20243;-87
2023/09/23 13:30:58;;;;;;;1.77;1.55;;;;;;;;;;4959820;28;20227;-86
2023/09/23 13:33:26;;;;;;;2.70;1.83;;;;;;;;;;4954092;28;20222;-87
2023/09/23 13:35:52;;;;;;;1.73;1.60;;;;;;;;;;4967967;28;20231;-87
2023/09/23 13:38:17;;;;;;;1.92;1.33;;;;;;;;;;4951992;28;20218;-87
2023/09/23 13:40:45;;;;;;;1.98;1.58;;;;;;;;;;4948976;28;20235;-90
2023/09/23 13:43:15;;;;;;;1.90;1.42;;;;;;;;;;4954856;28;20219;-89
2023/09/23 13:45:41;;;;;;;3.90;1.77;;;;;;;;;;4929194;29;20227;-86
2023/09/23 13:48:08;;;;;;;3.03;1.80;;;;;;;;;;4944919;28;20218;-90
2023/09/23 13:50:36;;;;;;;3.83;1.42;;;;;;;;;;4944642;28;20247;-89
2023/09/23 13:53:03;;;;;;;3.30;1.50;;;;;;;;;;4937234;29;20231;-87
2023/09/23 13:55:29;;;;;;;2.40;1.80;;;;;;;;;;4967831;28;20231;-86
2023/09/23 13:57:56;;;;;;;3.05;1.60;;;;;;;;;;4915087;29;20251;-86
2023/09/23 14:00:24;;;;;;;2.22;1.63;;;;;;;;;;4956108;28;20237;-89
2023/09/23 14:02:50;;;;;;;2.72;1.80;;;;;;;;;;4911037;29;20219;-87
2023/09/23 14:05:18;;;;;;;1.73;1.50;;;;;;;;;;4945066;28;20214;-87
2023/09/23 14:07:48;;;;;;;2.55;1.50;;;;;;;;;;4958081;28;20313;-88
2023/09/23 14:10:19;;;;;;;1.63;1.50;;;;;;;;;;4928234;28;20270;-86
2023/09/23 14:12:44;;;;;;;1.90;1.38;;;;;;;;;;4930136;29;20294;-86
2023/09/23 14:15:10;;;;;;;2.33;1.65;;;;;;;;;;4922414;28;20350;-86
2023/09/23 14:17:36;;;;;;;2.67;1.73;;;;;;;;;;4936810;29;20233;-85
2023/09/23 14:20:10;;;;;;;1.80;1.42;;;;;;;;;;4963393;28;20226;-87
2023/09/23 14:22:35;;;;;;;1.88;1.42;;;;;;;;;;4957044;28;20231;-86
2023/09/23 14:25:02;;;;;;;4.57;1.80;;;;;;;;;;4962660;28;20649;-87
2023/09/23 14:27:28;;;;;;;1.75;1.30;;;;;;;;;;4951773;28;20231;-86
2023/09/23 14:29:54;;;;;;;1.45;1.20;;;;;;;;;;4944456;28;20491;-86
2023/09/23 14:32:20;;;;;;;1.90;1.63;;;;;;;;;;4956882;28;20219;-87
2023/09/23 14:34:47;;;;;;;2.45;1.60;;;;;;;;;;4910511;29;20271;-87
2023/09/23 14:37:16;;;;;;;1.48;1.30;;;;;;;;;;4945362;28;20225;-86
2023/09/23 14:39:41;;;;;;;7.72;1.67;;;;;;;;;;4917826;29;20696;-88
2023/09/23 14:42:07;;;;;;;1.63;1.02;;;;;;;;;;4960469;28;20253;-88
2023/09/23 14:44:32;;;;;;;2.97;1.20;;;;;;;;;;4930419;29;20743;-86